sensor_id;sensor_type;location;lat;lon;timestamp;P1;durP1;ratioP1;P2;durP2;ratioP2
16975;SDS011;8604;48.148;-1.786;2022-08-21T00:27:23;11.73;;;3.03;;
16975;SDS011;8604;48.148;-1.786;2022-08-21T00:29:52;11.87;;;3.10;;
16975;SDS011;8604;48.148;-1.786;2022-08-21T00:32:23;11.90;;;3.20;;
16975;SDS011;8604;48.148;-1.786;2022-08-21T00:34:54;11.67;;;2.83;;
16975;SDS011;8604;48.148;-1.786;2022-08-21T00:37:23;9.77;;;2.90;;
16975;SDS011;8604;48.148;-1.786;2022-08-21T00:39:52;11.03;;;3.00;;
16975;SDS011;8604;48.148;-1.786;2022-08-21T00:45:32;14.07;;;3.10;;
16975;SDS011;8604;48.148;-1.786;2022-08-21T00:48:01;11.67;;;3.00;;
16975;SDS011;8604;48.148;-1.786;2022-08-21T00:50:32;11.73;;;3.10;;
16975;SDS011;8604;48.148;-1.786;2022-08-21T00:59:30;10.10;;;2.60;;
16975;SDS011;8604;48.148;-1.786;2022-08-21T01:02:07;10.60;;;2.80;;
16975;SDS011;8604;48.148;-1.786;2022-08-21T01:09:52;7.27;;;2.47;;
16975;SDS011;8604;48.148;-1.786;2022-08-21T01:12:21;7.67;;;2.50;;
16975;SDS011;8604;48.148;-1.786;2022-08-21T01:14:51;11.27;;;2.60;;
16975;SDS011;8604;48.148;-1.786;2022-08-21T01:17:21;7.30;;;2.53;;
16975;SDS011;8604;48.148;-1.786;2022-08-21T01:19:51;8.33;;;3.00;;
16975;SDS011;8604;48.148;-1.786;2022-08-21T01:25:31;9.97;;;2.97;;
16975;SDS011;8604;48.148;-1.786;2022-08-21T01:28:02;10.53;;;2.80;;
16975;SDS011;8604;48.148;-1.786;2022-08-21T01:30:35;11.33;;;3.23;;
16975;SDS011;8604;48.148;-1.786;2022-08-21T01:33:10;8.50;;;2.90;;
16975;SDS011;8604;48.148;-1.786;2022-08-21T01:35:39;8.80;;;2.80;;
16975;SDS011;8604;48.148;-1.786;2022-08-21T01:38:08;10.60;;;3.20;;
16975;SDS011;8604;48.148;-1.786;2022-08-21T01:40:38;11.90;;;3.23;;
16975;SDS011;8604;48.148;-1.786;2022-08-21T01:43:07;13.67;;;3.40;;
16975;SDS011;8604;48.148;-1.786;2022-08-21T01:45:35;8.53;;;3.03;;
16975;SDS011;8604;48.148;-1.786;2022-08-21T01:48:03;11.83;;;3.20;;
16975;SDS011;8604;48.148;-1.786;2022-08-21T01:50:32;11.63;;;2.90;;
16975;SDS011;8604;48.148;-1.786;2022-08-21T01:56:10;10.83;;;2.73;;
16975;SDS011;8604;48.148;-1.786;2022-08-21T01:58:40;7.63;;;2.90;;
16975;SDS011;8604;48.148;-1.786;2022-08-21T02:01:09;9.33;;;3.00;;
16975;SDS011;8604;48.148;-1.786;2022-08-21T02:03:38;9.57;;;2.90;;
16975;SDS011;8604;48.148;-1.786;2022-08-21T02:06:11;12.57;;;3.27;;
16975;SDS011;8604;48.148;-1.786;2022-08-21T02:08:44;10.20;;;3.10;;
16975;SDS011;8604;48.148;-1.786;2022-08-21T02:11:14;12.57;;;3.20;;
16975;SDS011;8604;48.148;-1.786;2022-08-21T02:13:42;11.80;;;3.37;;
16975;SDS011;8604;48.148;-1.786;2022-08-21T02:16:11;11.27;;;3.60;;
16975;SDS011;8604;48.148;-1.786;2022-08-21T02:18:45;13.67;;;3.67;;
16975;SDS011;8604;48.148;-1.786;2022-08-21T02:21:13;12.20;;;3.30;;
16975;SDS011;8604;48.148;-1.786;2022-08-21T02:23:42;9.97;;;3.30;;
16975;SDS011;8604;48.148;-1.786;2022-08-21T02:26:10;11.87;;;4.00;;
16975;SDS011;8604;48.148;-1.786;2022-08-21T02:28:40;11.90;;;3.50;;
16975;SDS011;8604;48.148;-1.786;2022-08-21T02:31:09;11.50;;;3.80;;
16975;SDS011;8604;48.148;-1.786;2022-08-21T02:33:38;8.70;;;3.40;;
16975;SDS011;8604;48.148;-1.786;2022-08-21T02:36:07;10.93;;;3.43;;
16975;SDS011;8604;48.148;-1.786;2022-08-21T02:38:37;9.93;;;3.37;;
16975;SDS011;8604;48.148;-1.786;2022-08-21T02:41:17;11.10;;;3.37;;
16975;SDS011;8604;48.148;-1.786;2022-08-21T02:43:48;10.40;;;3.27;;
16975;SDS011;8604;48.148;-1.786;2022-08-21T02:46:18;10.87;;;3.20;;
16975;SDS011;8604;48.148;-1.786;2022-08-21T02:48:47;9.90;;;3.33;;
16975;SDS011;8604;48.148;-1.786;2022-08-21T02:51:16;14.33;;;3.80;;
16975;SDS011;8604;48.148;-1.786;2022-08-21T02:53:46;12.37;;;4.07;;
16975;SDS011;8604;48.148;-1.786;2022-08-21T02:56:16;14.07;;;3.97;;
16975;SDS011;8604;48.148;-1.786;2022-08-21T02:58:51;12.43;;;3.83;;
16975;SDS011;8604;48.148;-1.786;2022-08-21T03:01:21;13.10;;;3.57;;
16975;SDS011;8604;48.148;-1.786;2022-08-21T03:03:49;12.23;;;4.13;;
16975;SDS011;8604;48.148;-1.786;2022-08-21T03:06:19;12.17;;;3.93;;
16975;SDS011;8604;48.148;-1.786;2022-08-21T03:08:49;15.33;;;3.70;;
16975;SDS011;8604;48.148;-1.786;2022-08-21T03:11:17;9.40;;;3.30;;
16975;SDS011;8604;48.148;-1.786;2022-08-21T03:13:47;11.80;;;3.70;;
16975;SDS011;8604;48.148;-1.786;2022-08-21T03:16:16;11.80;;;3.83;;
16975;SDS011;8604;48.148;-1.786;2022-08-21T03:18:45;10.83;;;3.33;;
16975;SDS011;8604;48.148;-1.786;2022-08-21T03:21:14;9.43;;;3.30;;
16975;SDS011;8604;48.148;-1.786;2022-08-21T03:23:44;11.40;;;3.47;;
16975;SDS011;8604;48.148;-1.786;2022-08-21T03:26:13;9.03;;;3.47;;
16975;SDS011;8604;48.148;-1.786;2022-08-21T03:28:42;10.30;;;3.43;;
16975;SDS011;8604;48.148;-1.786;2022-08-21T03:31:10;13.10;;;3.77;;
16975;SDS011;8604;48.148;-1.786;2022-08-21T03:33:40;10.40;;;3.70;;
16975;SDS011;8604;48.148;-1.786;2022-08-21T03:36:08;8.07;;;3.30;;
16975;SDS011;8604;48.148;-1.786;2022-08-21T03:38:37;11.47;;;4.20;;
16975;SDS011;8604;48.148;-1.786;2022-08-21T03:41:07;9.57;;;3.47;;
16975;SDS011;8604;48.148;-1.786;2022-08-21T03:43:36;12.67;;;3.90;;
16975;SDS011;8604;48.148;-1.786;2022-08-21T03:46:05;12.30;;;3.77;;
16975;SDS011;8604;48.148;-1.786;2022-08-21T03:48:34;12.70;;;4.27;;
16975;SDS011;8604;48.148;-1.786;2022-08-21T03:51:05;12.10;;;3.90;;
16975;SDS011;8604;48.148;-1.786;2022-08-21T03:53:34;9.83;;;3.97;;
16975;SDS011;8604;48.148;-1.786;2022-08-21T03:56:03;13.00;;;4.00;;
16975;SDS011;8604;48.148;-1.786;2022-08-21T03:58:32;9.93;;;3.80;;
16975;SDS011;8604;48.148;-1.786;2022-08-21T04:01:01;12.90;;;4.10;;
16975;SDS011;8604;48.148;-1.786;2022-08-21T04:03:31;9.37;;;3.67;;
16975;SDS011;8604;48.148;-1.786;2022-08-21T04:06:01;11.20;;;4.50;;
16975;SDS011;8604;48.148;-1.786;2022-08-21T04:08:32;9.43;;;4.00;;
16975;SDS011;8604;48.148;-1.786;2022-08-21T04:11:00;9.77;;;3.93;;
16975;SDS011;8604;48.148;-1.786;2022-08-21T04:13:29;9.93;;;3.60;;
16975;SDS011;8604;48.148;-1.786;2022-08-21T04:15:57;11.13;;;4.33;;
16975;SDS011;8604;48.148;-1.786;2022-08-21T04:18:25;10.57;;;3.90;;
16975;SDS011;8604;48.148;-1.786;2022-08-21T04:20:54;11.57;;;4.43;;
16975;SDS011;8604;48.148;-1.786;2022-08-21T04:23:24;12.83;;;4.73;;
16975;SDS011;8604;48.148;-1.786;2022-08-21T04:25:55;12.20;;;4.30;;
16975;SDS011;8604;48.148;-1.786;2022-08-21T04:28:24;10.50;;;4.63;;
16975;SDS011;8604;48.148;-1.786;2022-08-21T04:30:56;14.37;;;5.20;;
16975;SDS011;8604;48.148;-1.786;2022-08-21T04:33:25;11.90;;;4.30;;
16975;SDS011;8604;48.148;-1.786;2022-08-21T04:35:54;9.47;;;4.23;;
16975;SDS011;8604;48.148;-1.786;2022-08-21T04:38:22;10.80;;;4.03;;
16975;SDS011;8604;48.148;-1.786;2022-08-21T04:40:50;10.00;;;4.47;;
16975;SDS011;8604;48.148;-1.786;2022-08-21T04:43:20;8.83;;;4.40;;
16975;SDS011;8604;48.148;-1.786;2022-08-21T04:45:50;11.97;;;4.87;;
16975;SDS011;8604;48.148;-1.786;2022-08-21T04:48:21;12.53;;;4.80;;
16975;SDS011;8604;48.148;-1.786;2022-08-21T04:50:52;12.43;;;4.70;;
16975;SDS011;8604;48.148;-1.786;2022-08-21T04:53:26;12.77;;;4.83;;
16975;SDS011;8604;48.148;-1.786;2022-08-21T04:55:59;11.23;;;5.00;;
16975;SDS011;8604;48.148;-1.786;2022-08-21T04:58:33;11.33;;;4.60;;
16975;SDS011;8604;48.148;-1.786;2022-08-21T05:01:03;12.93;;;4.80;;
16975;SDS011;8604;48.148;-1.786;2022-08-21T05:03:34;10.63;;;4.57;;
16975;SDS011;8604;48.148;-1.786;2022-08-21T05:06:05;12.90;;;4.93;;
16975;SDS011;8604;48.148;-1.786;2022-08-21T05:08:35;13.37;;;5.27;;
16975;SDS011;8604;48.148;-1.786;2022-08-21T05:11:05;9.73;;;4.97;;
16975;SDS011;8604;48.148;-1.786;2022-08-21T05:13:35;8.67;;;4.47;;
16975;SDS011;8604;48.148;-1.786;2022-08-21T05:16:04;11.47;;;4.70;;
16975;SDS011;8604;48.148;-1.786;2022-08-21T05:18:32;12.83;;;5.23;;
16975;SDS011;8604;48.148;-1.786;2022-08-21T05:21:01;11.60;;;5.27;;
16975;SDS011;8604;48.148;-1.786;2022-08-21T05:23:29;10.37;;;4.67;;
16975;SDS011;8604;48.148;-1.786;2022-08-21T05:25:58;10.93;;;4.60;;
16975;SDS011;8604;48.148;-1.786;2022-08-21T05:28:27;13.37;;;5.43;;
16975;SDS011;8604;48.148;-1.786;2022-08-21T05:30:57;15.37;;;5.30;;
16975;SDS011;8604;48.148;-1.786;2022-08-21T05:33:25;11.60;;;4.60;;
16975;SDS011;8604;48.148;-1.786;2022-08-21T05:35:54;14.30;;;5.37;;
16975;SDS011;8604;48.148;-1.786;2022-08-21T05:38:23;8.93;;;4.50;;
16975;SDS011;8604;48.148;-1.786;2022-08-21T05:40:53;12.50;;;5.03;;
16975;SDS011;8604;48.148;-1.786;2022-08-21T05:43:22;10.70;;;4.90;;
16975;SDS011;8604;48.148;-1.786;2022-08-21T05:45:50;13.67;;;5.37;;
16975;SDS011;8604;48.148;-1.786;2022-08-21T05:48:23;10.17;;;4.80;;
16975;SDS011;8604;48.148;-1.786;2022-08-21T05:50:55;11.37;;;4.57;;
16975;SDS011;8604;48.148;-1.786;2022-08-21T05:53:32;10.13;;;4.80;;
16975;SDS011;8604;48.148;-1.786;2022-08-21T05:56:27;10.53;;;4.70;;
16975;SDS011;8604;48.148;-1.786;2022-08-21T05:59:06;10.87;;;4.73;;
16975;SDS011;8604;48.148;-1.786;2022-08-21T06:01:39;9.17;;;4.60;;
16975;SDS011;8604;48.148;-1.786;2022-08-21T06:04:30;9.70;;;4.30;;
16975;SDS011;8604;48.148;-1.786;2022-08-21T06:07:12;11.47;;;4.00;;
16975;SDS011;8604;48.148;-1.786;2022-08-21T06:09:51;9.90;;;4.40;;
16975;SDS011;8604;48.148;-1.786;2022-08-21T06:12:22;11.57;;;4.93;;
16975;SDS011;8604;48.148;-1.786;2022-08-21T06:14:56;10.00;;;4.40;;
16975;SDS011;8604;48.148;-1.786;2022-08-21T06:17:32;12.83;;;5.10;;
16975;SDS011;8604;48.148;-1.786;2022-08-21T06:20:08;13.40;;;4.93;;
16975;SDS011;8604;48.148;-1.786;2022-08-21T06:22:47;10.70;;;4.77;;
16975;SDS011;8604;48.148;-1.786;2022-08-21T06:25:21;8.80;;;4.50;;
16975;SDS011;8604;48.148;-1.786;2022-08-21T06:28:08;11.20;;;5.07;;
16975;SDS011;8604;48.148;-1.786;2022-08-21T06:30:49;11.67;;;4.80;;
16975;SDS011;8604;48.148;-1.786;2022-08-21T06:33:17;12.03;;;4.60;;
16975;SDS011;8604;48.148;-1.786;2022-08-21T06:36:02;11.83;;;4.87;;
16975;SDS011;8604;48.148;-1.786;2022-08-21T06:38:35;11.60;;;5.97;;
16975;SDS011;8604;48.148;-1.786;2022-08-21T06:41:17;13.60;;;5.23;;
16975;SDS011;8604;48.148;-1.786;2022-08-21T06:43:57;11.37;;;5.07;;
16975;SDS011;8604;48.148;-1.786;2022-08-21T06:46:27;12.37;;;5.13;;
16975;SDS011;8604;48.148;-1.786;2022-08-21T06:48:57;10.67;;;5.17;;
16975;SDS011;8604;48.148;-1.786;2022-08-21T06:51:27;13.37;;;5.50;;
16975;SDS011;8604;48.148;-1.786;2022-08-21T06:53:56;13.67;;;5.67;;
16975;SDS011;8604;48.148;-1.786;2022-08-21T06:56:25;12.97;;;5.23;;
16975;SDS011;8604;48.148;-1.786;2022-08-21T06:58:53;9.70;;;5.10;;
16975;SDS011;8604;48.148;-1.786;2022-08-21T07:01:23;12.43;;;5.20;;
16975;SDS011;8604;48.148;-1.786;2022-08-21T07:03:53;10.53;;;4.97;;
16975;SDS011;8604;48.148;-1.786;2022-08-21T07:06:21;10.10;;;4.90;;
16975;SDS011;8604;48.148;-1.786;2022-08-21T07:08:51;13.97;;;5.27;;
16975;SDS011;8604;48.148;-1.786;2022-08-21T07:11:21;11.83;;;4.63;;
16975;SDS011;8604;48.148;-1.786;2022-08-21T07:13:51;11.57;;;4.43;;
16975;SDS011;8604;48.148;-1.786;2022-08-21T07:16:20;11.03;;;4.70;;
16975;SDS011;8604;48.148;-1.786;2022-08-21T07:18:49;13.57;;;5.60;;
16975;SDS011;8604;48.148;-1.786;2022-08-21T07:21:18;11.57;;;5.00;;
16975;SDS011;8604;48.148;-1.786;2022-08-21T07:23:53;12.33;;;5.23;;
16975;SDS011;8604;48.148;-1.786;2022-08-21T07:26:22;12.80;;;4.90;;
16975;SDS011;8604;48.148;-1.786;2022-08-21T07:28:52;10.23;;;4.57;;
16975;SDS011;8604;48.148;-1.786;2022-08-21T07:31:22;13.37;;;5.23;;
16975;SDS011;8604;48.148;-1.786;2022-08-21T07:33:52;9.50;;;4.67;;
16975;SDS011;8604;48.148;-1.786;2022-08-21T07:36:21;12.30;;;4.67;;
16975;SDS011;8604;48.148;-1.786;2022-08-21T07:38:50;10.53;;;4.13;;
16975;SDS011;8604;48.148;-1.786;2022-08-21T07:41:20;12.07;;;4.77;;
16975;SDS011;8604;48.148;-1.786;2022-08-21T07:43:51;9.67;;;4.57;;
16975;SDS011;8604;48.148;-1.786;2022-08-21T07:46:19;11.17;;;4.70;;
16975;SDS011;8604;48.148;-1.786;2022-08-21T07:48:48;12.00;;;4.40;;
16975;SDS011;8604;48.148;-1.786;2022-08-21T07:51:20;10.13;;;4.23;;
16975;SDS011;8604;48.148;-1.786;2022-08-21T07:53:53;11.17;;;4.93;;
16975;SDS011;8604;48.148;-1.786;2022-08-21T07:56:23;12.13;;;4.60;;
16975;SDS011;8604;48.148;-1.786;2022-08-21T07:58:52;12.93;;;4.60;;
16975;SDS011;8604;48.148;-1.786;2022-08-21T08:01:22;15.13;;;4.70;;
16975;SDS011;8604;48.148;-1.786;2022-08-21T08:03:51;12.60;;;4.60;;
16975;SDS011;8604;48.148;-1.786;2022-08-21T08:06:19;9.67;;;3.90;;
16975;SDS011;8604;48.148;-1.786;2022-08-21T08:08:48;11.17;;;4.20;;
16975;SDS011;8604;48.148;-1.786;2022-08-21T08:11:17;12.43;;;4.57;;
16975;SDS011;8604;48.148;-1.786;2022-08-21T08:13:47;10.23;;;4.40;;
16975;SDS011;8604;48.148;-1.786;2022-08-21T08:16:17;12.73;;;4.73;;
16975;SDS011;8604;48.148;-1.786;2022-08-21T08:18:45;11.10;;;4.40;;
16975;SDS011;8604;48.148;-1.786;2022-08-21T08:21:14;10.83;;;3.80;;
16975;SDS011;8604;48.148;-1.786;2022-08-21T08:23:43;10.47;;;3.70;;
16975;SDS011;8604;48.148;-1.786;2022-08-21T08:26:11;11.13;;;3.73;;
16975;SDS011;8604;48.148;-1.786;2022-08-21T08:28:42;12.40;;;3.90;;
16975;SDS011;8604;48.148;-1.786;2022-08-21T08:31:12;14.60;;;4.00;;
16975;SDS011;8604;48.148;-1.786;2022-08-21T08:33:40;10.20;;;3.80;;
16975;SDS011;8604;48.148;-1.786;2022-08-21T08:36:12;10.57;;;3.30;;
16975;SDS011;8604;48.148;-1.786;2022-08-21T08:38:41;9.83;;;3.23;;
16975;SDS011;8604;48.148;-1.786;2022-08-21T08:41:11;13.20;;;3.83;;
16975;SDS011;8604;48.148;-1.786;2022-08-21T08:43:42;12.00;;;3.70;;
16975;SDS011;8604;48.148;-1.786;2022-08-21T08:46:19;11.97;;;3.30;;
16975;SDS011;8604;48.148;-1.786;2022-08-21T08:48:54;14.87;;;3.70;;
16975;SDS011;8604;48.148;-1.786;2022-08-21T08:51:31;12.17;;;3.80;;
16975;SDS011;8604;48.148;-1.786;2022-08-21T08:54:08;11.50;;;3.50;;
16975;SDS011;8604;48.148;-1.786;2022-08-21T08:56:40;9.70;;;2.73;;
16975;SDS011;8604;48.148;-1.786;2022-08-21T08:59:11;11.10;;;3.57;;
16975;SDS011;8604;48.148;-1.786;2022-08-21T09:01:44;11.17;;;3.30;;
16975;SDS011;8604;48.148;-1.786;2022-08-21T09:04:13;9.33;;;2.63;;
16975;SDS011;8604;48.148;-1.786;2022-08-21T09:06:53;11.03;;;3.00;;
16975;SDS011;8604;48.148;-1.786;2022-08-21T09:09:31;7.10;;;2.37;;
16975;SDS011;8604;48.148;-1.786;2022-08-21T09:12:09;9.23;;;2.50;;
16975;SDS011;8604;48.148;-1.786;2022-08-21T09:14:47;10.80;;;3.10;;
16975;SDS011;8604;48.148;-1.786;2022-08-21T09:17:31;11.00;;;3.00;;
16975;SDS011;8604;48.148;-1.786;2022-08-21T09:20:12;10.13;;;2.70;;
16975;SDS011;8604;48.148;-1.786;2022-08-21T09:22:50;7.03;;;2.17;;
16975;SDS011;8604;48.148;-1.786;2022-08-21T09:25:31;9.57;;;2.50;;
16975;SDS011;8604;48.148;-1.786;2022-08-21T09:28:02;9.57;;;2.60;;
16975;SDS011;8604;48.148;-1.786;2022-08-21T09:30:31;8.27;;;2.33;;
16975;SDS011;8604;48.148;-1.786;2022-08-21T09:33:02;9.20;;;2.23;;
16975;SDS011;8604;48.148;-1.786;2022-08-21T09:35:33;10.57;;;2.60;;
16975;SDS011;8604;48.148;-1.786;2022-08-21T09:38:04;9.13;;;2.30;;
16975;SDS011;8604;48.148;-1.786;2022-08-21T09:40:38;10.87;;;2.57;;
16975;SDS011;8604;48.148;-1.786;2022-08-21T09:43:15;10.77;;;2.87;;
16975;SDS011;8604;48.148;-1.786;2022-08-21T09:45:45;9.10;;;2.50;;
16975;SDS011;8604;48.148;-1.786;2022-08-21T09:48:18;8.40;;;2.50;;
16975;SDS011;8604;48.148;-1.786;2022-08-21T09:50:53;7.23;;;2.20;;
16975;SDS011;8604;48.148;-1.786;2022-08-21T09:53:37;7.97;;;2.20;;
16975;SDS011;8604;48.148;-1.786;2022-08-21T09:56:16;7.03;;;2.40;;
16975;SDS011;8604;48.148;-1.786;2022-08-21T09:59:24;7.93;;;2.17;;
16975;SDS011;8604;48.148;-1.786;2022-08-21T10:05:02;9.33;;;2.60;;
16975;SDS011;8604;48.148;-1.786;2022-08-21T10:07:44;9.83;;;2.30;;
16975;SDS011;8604;48.148;-1.786;2022-08-21T10:10:14;6.83;;;2.00;;
16975;SDS011;8604;48.148;-1.786;2022-08-21T10:12:47;5.03;;;1.70;;
16975;SDS011;8604;48.148;-1.786;2022-08-21T10:15:39;8.07;;;1.97;;
16975;SDS011;8604;48.148;-1.786;2022-08-21T10:18:17;8.30;;;2.17;;
16975;SDS011;8604;48.148;-1.786;2022-08-21T10:21:20;6.53;;;2.00;;
16975;SDS011;8604;48.148;-1.786;2022-08-21T10:23:57;6.70;;;2.13;;
16975;SDS011;8604;48.148;-1.786;2022-08-21T10:26:44;7.83;;;2.20;;
16975;SDS011;8604;48.148;-1.786;2022-08-21T10:29:39;6.23;;;2.13;;
16975;SDS011;8604;48.148;-1.786;2022-08-21T10:32:27;6.63;;;2.30;;
16975;SDS011;8604;48.148;-1.786;2022-08-21T10:35:08;6.43;;;2.20;;
16975;SDS011;8604;48.148;-1.786;2022-08-21T10:37:46;7.23;;;2.50;;
16975;SDS011;8604;48.148;-1.786;2022-08-21T10:40:34;6.77;;;2.13;;
16975;SDS011;8604;48.148;-1.786;2022-08-21T10:43:15;7.47;;;2.30;;
16975;SDS011;8604;48.148;-1.786;2022-08-21T10:45:51;6.17;;;2.00;;
16975;SDS011;8604;48.148;-1.786;2022-08-21T10:48:36;7.53;;;2.00;;
16975;SDS011;8604;48.148;-1.786;2022-08-21T10:51:09;6.40;;;2.23;;
16975;SDS011;8604;48.148;-1.786;2022-08-21T10:54:02;7.17;;;2.10;;
16975;SDS011;8604;48.148;-1.786;2022-08-21T10:56:39;8.03;;;2.37;;
16975;SDS011;8604;48.148;-1.786;2022-08-21T10:59:20;6.30;;;2.30;;
16975;SDS011;8604;48.148;-1.786;2022-08-21T11:01:54;6.57;;;1.97;;
16975;SDS011;8604;48.148;-1.786;2022-08-21T11:04:30;7.47;;;2.20;;
16975;SDS011;8604;48.148;-1.786;2022-08-21T11:07:16;6.13;;;2.17;;
16975;SDS011;8604;48.148;-1.786;2022-08-21T11:10:04;7.43;;;2.30;;
16975;SDS011;8604;48.148;-1.786;2022-08-21T11:12:41;10.10;;;2.70;;
16975;SDS011;8604;48.148;-1.786;2022-08-21T11:15:26;10.23;;;2.70;;
16975;SDS011;8604;48.148;-1.786;2022-08-21T11:18:04;8.33;;;2.50;;
16975;SDS011;8604;48.148;-1.786;2022-08-21T11:20:46;6.10;;;2.10;;
16975;SDS011;8604;48.148;-1.786;2022-08-21T11:23:22;6.83;;;2.37;;
16975;SDS011;8604;48.148;-1.786;2022-08-21T11:26:00;32.97;;;25.97;;
16975;SDS011;8604;48.148;-1.786;2022-08-21T11:28:36;31.93;;;23.93;;
16975;SDS011;8604;48.148;-1.786;2022-08-21T11:31:12;12.87;;;8.17;;
16975;SDS011;8604;48.148;-1.786;2022-08-21T11:33:54;20.03;;;13.57;;
16975;SDS011;8604;48.148;-1.786;2022-08-21T11:36:41;8.33;;;3.17;;
16975;SDS011;8604;48.148;-1.786;2022-08-21T11:39:17;7.97;;;2.50;;
16975;SDS011;8604;48.148;-1.786;2022-08-21T11:41:59;6.00;;;2.20;;
16975;SDS011;8604;48.148;-1.786;2022-08-21T11:44:38;6.17;;;2.20;;
16975;SDS011;8604;48.148;-1.786;2022-08-21T11:47:15;6.40;;;2.30;;
16975;SDS011;8604;48.148;-1.786;2022-08-21T11:49:53;6.13;;;2.37;;
16975;SDS011;8604;48.148;-1.786;2022-08-21T11:52:44;7.83;;;2.50;;
16975;SDS011;8604;48.148;-1.786;2022-08-21T11:55:19;5.33;;;2.20;;
16975;SDS011;8604;48.148;-1.786;2022-08-21T11:57:56;7.43;;;2.20;;
16975;SDS011;8604;48.148;-1.786;2022-08-21T12:00:29;9.77;;;2.17;;
16975;SDS011;8604;48.148;-1.786;2022-08-21T12:03:06;6.57;;;2.30;;
16975;SDS011;8604;48.148;-1.786;2022-08-21T12:05:38;6.57;;;2.50;;
16975;SDS011;8604;48.148;-1.786;2022-08-21T12:08:15;7.63;;;2.70;;
16975;SDS011;8604;48.148;-1.786;2022-08-21T12:11:02;7.90;;;2.37;;
16975;SDS011;8604;48.148;-1.786;2022-08-21T12:13:36;9.70;;;2.43;;
16975;SDS011;8604;48.148;-1.786;2022-08-21T12:16:09;8.63;;;2.33;;
16975;SDS011;8604;48.148;-1.786;2022-08-21T12:18:43;7.27;;;2.17;;
16975;SDS011;8604;48.148;-1.786;2022-08-21T12:21:22;10.37;;;2.47;;
16975;SDS011;8604;48.148;-1.786;2022-08-21T12:24:00;6.97;;;2.13;;
16975;SDS011;8604;48.148;-1.786;2022-08-21T12:26:33;6.60;;;2.00;;
16975;SDS011;8604;48.148;-1.786;2022-08-21T12:29:15;4.93;;;1.67;;
16975;SDS011;8604;48.148;-1.786;2022-08-21T12:31:52;5.40;;;1.90;;
16975;SDS011;8604;48.148;-1.786;2022-08-21T12:34:34;6.87;;;2.13;;
16975;SDS011;8604;48.148;-1.786;2022-08-21T12:37:14;5.97;;;2.00;;
16975;SDS011;8604;48.148;-1.786;2022-08-21T12:39:54;4.37;;;1.60;;
16975;SDS011;8604;48.148;-1.786;2022-08-21T12:42:30;5.83;;;2.10;;
16975;SDS011;8604;48.148;-1.786;2022-08-21T12:45:10;7.27;;;2.10;;
16975;SDS011;8604;48.148;-1.786;2022-08-21T12:47:45;5.67;;;1.90;;
16975;SDS011;8604;48.148;-1.786;2022-08-21T12:50:19;4.97;;;1.70;;
16975;SDS011;8604;48.148;-1.786;2022-08-21T12:53:02;4.87;;;1.90;;
16975;SDS011;8604;48.148;-1.786;2022-08-21T12:55:46;4.83;;;1.90;;
16975;SDS011;8604;48.148;-1.786;2022-08-21T12:58:18;5.53;;;2.00;;
16975;SDS011;8604;48.148;-1.786;2022-08-21T13:00:50;5.20;;;1.73;;
16975;SDS011;8604;48.148;-1.786;2022-08-21T13:03:22;4.40;;;1.90;;
16975;SDS011;8604;48.148;-1.786;2022-08-21T13:05:58;4.20;;;2.03;;
16975;SDS011;8604;48.148;-1.786;2022-08-21T13:08:27;3.97;;;1.70;;
16975;SDS011;8604;48.148;-1.786;2022-08-21T13:10:58;6.30;;;2.10;;
16975;SDS011;8604;48.148;-1.786;2022-08-21T13:13:40;6.33;;;2.23;;
16975;SDS011;8604;48.148;-1.786;2022-08-21T13:16:20;4.60;;;1.90;;
16975;SDS011;8604;48.148;-1.786;2022-08-21T13:18:53;5.03;;;2.00;;
16975;SDS011;8604;48.148;-1.786;2022-08-21T13:21:27;3.90;;;1.80;;
16975;SDS011;8604;48.148;-1.786;2022-08-21T13:24:12;3.20;;;1.73;;
16975;SDS011;8604;48.148;-1.786;2022-08-21T13:27:14;4.73;;;2.17;;
16975;SDS011;8604;48.148;-1.786;2022-08-21T13:30:03;3.93;;;2.07;;
16975;SDS011;8604;48.148;-1.786;2022-08-21T13:32:39;4.37;;;2.07;;
16975;SDS011;8604;48.148;-1.786;2022-08-21T13:35:10;4.43;;;2.00;;
16975;SDS011;8604;48.148;-1.786;2022-08-21T13:37:47;4.10;;;2.13;;
16975;SDS011;8604;48.148;-1.786;2022-08-21T13:40:19;3.47;;;1.70;;
16975;SDS011;8604;48.148;-1.786;2022-08-21T13:42:57;3.70;;;1.80;;
16975;SDS011;8604;48.148;-1.786;2022-08-21T13:45:30;4.20;;;1.70;;
16975;SDS011;8604;48.148;-1.786;2022-08-21T13:48:01;2.47;;;1.50;;
16975;SDS011;8604;48.148;-1.786;2022-08-21T13:50:33;3.10;;;1.70;;
16975;SDS011;8604;48.148;-1.786;2022-08-21T13:53:05;3.57;;;1.40;;
16975;SDS011;8604;48.148;-1.786;2022-08-21T13:55:37;2.33;;;1.63;;
16975;SDS011;8604;48.148;-1.786;2022-08-21T13:58:08;3.97;;;1.77;;
16975;SDS011;8604;48.148;-1.786;2022-08-21T14:00:44;2.83;;;1.60;;
16975;SDS011;8604;48.148;-1.786;2022-08-21T14:03:23;3.67;;;1.60;;
16975;SDS011;8604;48.148;-1.786;2022-08-21T14:05:57;2.30;;;1.30;;
16975;SDS011;8604;48.148;-1.786;2022-08-21T14:08:30;3.60;;;1.60;;
16975;SDS011;8604;48.148;-1.786;2022-08-21T14:11:02;3.63;;;1.30;;
16975;SDS011;8604;48.148;-1.786;2022-08-21T14:13:34;4.13;;;1.60;;
16975;SDS011;8604;48.148;-1.786;2022-08-21T14:16:10;2.50;;;1.43;;
16975;SDS011;8604;48.148;-1.786;2022-08-21T14:18:51;3.33;;;1.80;;
16975;SDS011;8604;48.148;-1.786;2022-08-21T14:21:26;3.20;;;1.50;;
16975;SDS011;8604;48.148;-1.786;2022-08-21T14:24:02;4.63;;;1.70;;
16975;SDS011;8604;48.148;-1.786;2022-08-21T14:26:34;4.57;;;2.00;;
16975;SDS011;8604;48.148;-1.786;2022-08-21T14:29:06;4.93;;;2.20;;
16975;SDS011;8604;48.148;-1.786;2022-08-21T14:31:36;3.73;;;1.63;;
16975;SDS011;8604;48.148;-1.786;2022-08-21T14:34:11;3.77;;;1.80;;
16975;SDS011;8604;48.148;-1.786;2022-08-21T14:36:46;3.83;;;1.73;;
16975;SDS011;8604;48.148;-1.786;2022-08-21T14:39:15;3.63;;;1.87;;
16975;SDS011;8604;48.148;-1.786;2022-08-21T14:41:44;3.33;;;1.70;;
16975;SDS011;8604;48.148;-1.786;2022-08-21T14:44:14;3.93;;;1.67;;
16975;SDS011;8604;48.148;-1.786;2022-08-21T14:46:46;5.30;;;1.60;;
16975;SDS011;8604;48.148;-1.786;2022-08-21T14:49:27;2.93;;;1.70;;
16975;SDS011;8604;48.148;-1.786;2022-08-21T14:51:57;2.90;;;1.80;;
16975;SDS011;8604;48.148;-1.786;2022-08-21T14:54:26;3.53;;;1.80;;
16975;SDS011;8604;48.148;-1.786;2022-08-21T14:56:58;3.63;;;1.50;;
16975;SDS011;8604;48.148;-1.786;2022-08-21T14:59:29;3.87;;;1.80;;
16975;SDS011;8604;48.148;-1.786;2022-08-21T15:01:59;2.63;;;1.60;;
16975;SDS011;8604;48.148;-1.786;2022-08-21T15:04:29;4.57;;;1.73;;
16975;SDS011;8604;48.148;-1.786;2022-08-21T15:06:58;3.63;;;1.80;;
16975;SDS011;8604;48.148;-1.786;2022-08-21T15:09:26;3.83;;;1.97;;
16975;SDS011;8604;48.148;-1.786;2022-08-21T15:11:55;2.87;;;1.60;;
16975;SDS011;8604;48.148;-1.786;2022-08-21T15:14:27;2.53;;;1.37;;
16975;SDS011;8604;48.148;-1.786;2022-08-21T15:16:58;3.10;;;1.43;;
16975;SDS011;8604;48.148;-1.786;2022-08-21T15:19:26;1.93;;;1.47;;
16975;SDS011;8604;48.148;-1.786;2022-08-21T15:21:57;2.90;;;1.57;;
16975;SDS011;8604;48.148;-1.786;2022-08-21T15:24:26;1.90;;;1.30;;
16975;SDS011;8604;48.148;-1.786;2022-08-21T15:26:55;3.37;;;1.30;;
16975;SDS011;8604;48.148;-1.786;2022-08-21T15:29:26;2.30;;;1.30;;
16975;SDS011;8604;48.148;-1.786;2022-08-21T15:32:00;1.67;;;1.17;;
16975;SDS011;8604;48.148;-1.786;2022-08-21T15:34:30;1.47;;;1.10;;
16975;SDS011;8604;48.148;-1.786;2022-08-21T15:36:59;2.30;;;0.90;;
16975;SDS011;8604;48.148;-1.786;2022-08-21T15:39:27;3.40;;;1.30;;
16975;SDS011;8604;48.148;-1.786;2022-08-21T15:42:03;1.47;;;1.00;;
16975;SDS011;8604;48.148;-1.786;2022-08-21T15:44:37;2.40;;;1.10;;
16975;SDS011;8604;48.148;-1.786;2022-08-21T15:47:07;4.70;;;1.50;;
16975;SDS011;8604;48.148;-1.786;2022-08-21T15:49:46;1.47;;;1.10;;
16975;SDS011;8604;48.148;-1.786;2022-08-21T15:52:14;2.60;;;1.07;;
16975;SDS011;8604;48.148;-1.786;2022-08-21T15:54:44;1.93;;;1.20;;
16975;SDS011;8604;48.148;-1.786;2022-08-21T15:57:13;2.13;;;1.10;;
16975;SDS011;8604;48.148;-1.786;2022-08-21T15:59:45;3.33;;;1.23;;
16975;SDS011;8604;48.148;-1.786;2022-08-21T16:02:17;1.83;;;1.20;;
16975;SDS011;8604;48.148;-1.786;2022-08-21T16:04:50;1.90;;;1.10;;
16975;SDS011;8604;48.148;-1.786;2022-08-21T16:07:19;1.67;;;1.10;;